createdAt,value
2022-11-27T00:00:40.703Z,101265.53
2022-11-27T00:03:16.667Z,101261.19
2022-11-27T00:05:56.738Z,101264.72
2022-11-27T00:08:26.708Z,101262.00
2022-11-27T00:10:57.279Z,101265.53
2022-11-27T00:13:25.230Z,101265.53
2022-11-27T00:15:53.377Z,101269.94
2022-11-27T00:18:22.780Z,101268.91
2022-11-27T00:20:50.709Z,101276.16
2022-11-27T00:23:24.207Z,101271.78
2022-11-27T00:25:52.422Z,101269.94
2022-11-27T00:28:20.343Z,101269.94
2022-11-27T00:30:48.283Z,101279.69
2022-11-27T00:33:16.269Z,101279.69
2022-11-27T00:35:45.835Z,101278.00
2022-11-27T00:38:14.187Z,101285.06
2022-11-27T00:40:42.143Z,101290.66
2022-11-27T00:43:10.128Z,101289.81
2022-11-27T00:45:38.084Z,101290.84
2022-11-27T00:48:06.716Z,101290.84
2022-11-27T00:50:34.628Z,101290.84
2022-11-27T00:53:04.049Z,101289.19
2022-11-27T00:55:32.019Z,101288.31
2022-11-27T00:57:59.955Z,101287.47
2022-11-27T01:00:27.941Z,101282.91
2022-11-27T01:02:55.987Z,101274.00
2022-11-27T01:05:24.023Z,101276.69
2022-11-27T01:07:52.015Z,101276.69
2022-11-27T01:10:21.423Z,101275.88
2022-11-27T01:12:50.017Z,101275.03
2022-11-27T01:15:18.170Z,101274.22
2022-11-27T01:17:47.522Z,101274.22
2022-11-27T01:20:17.090Z,101272.34
2022-11-27T01:22:45.013Z,101265.09
2022-11-27T01:25:12.950Z,101260.53
2022-11-27T01:27:42.314Z,101257.81
2022-11-27T01:30:11.606Z,101257.66
2022-11-27T01:32:39.526Z,101256.81
2022-11-27T01:35:08.504Z,101253.09
2022-11-27T01:37:36.447Z,101250.41
2022-11-27T01:40:04.764Z,101246.03
2022-11-27T01:42:32.694Z,101246.88
2022-11-27T01:45:01.987Z,101240.66
2022-11-27T01:47:39.548Z,101240.66
2022-11-27T01:50:17.627Z,101247.03
2022-11-27T01:52:48.327Z,101238.13
2022-11-27T01:55:20.428Z,101243.53
2022-11-27T01:57:49.653Z,101243.53
2022-11-27T02:00:19.288Z,101235.63
2022-11-27T02:02:47.304Z,101230.25
2022-11-27T02:05:17.755Z,101232.94
2022-11-27T02:07:45.894Z,101233.94
2022-11-27T02:10:14.019Z,101224.84
2022-11-27T02:12:50.052Z,101227.56
2022-11-27T02:15:21.762Z,101230.41
2022-11-27T02:17:53.048Z,101221.50
2022-11-27T02:20:28.910Z,101216.13
2022-11-27T02:23:27.862Z,101223.16
2022-11-27T02:26:06.622Z,101217.78
2022-11-27T02:28:42.577Z,101217.97
2022-11-27T02:31:15.133Z,101220.69
2022-11-27T02:33:45.428Z,101224.19
2022-11-27T02:36:15.386Z,101223.16
2022-11-27T02:38:45.571Z,101220.47
2022-11-27T02:41:15.742Z,101225.69
2022-11-27T02:43:44.441Z,101225.69
2022-11-27T02:46:13.797Z,101214.91
2022-11-27T02:48:44.021Z,101213.88
2022-11-27T02:51:11.938Z,101214.91
2022-11-27T02:53:42.862Z,101215.72
2022-11-27T02:56:13.012Z,101214.69
2022-11-27T02:58:40.939Z,101209.50
2022-11-27T03:01:08.949Z,101211.38
2022-11-27T03:03:42.671Z,101209.69
2022-11-27T03:06:12.716Z,101216.94
2022-11-27T03:08:43.751Z,101218.81
2022-11-27T03:11:12.627Z,101211.72
2022-11-27T03:13:41.703Z,101213.41
2022-11-27T03:16:13.077Z,101203.63
2022-11-27T03:18:43.938Z,101209.03
2022-11-27T03:21:16.788Z,101209.03
2022-11-27T03:23:44.716Z,101212.75
2022-11-27T03:26:12.644Z,101219.81
2022-11-27T03:28:40.761Z,101213.41
2022-11-27T03:31:08.734Z,101216.13
2022-11-27T03:33:36.594Z,101225.19
2022-11-27T03:36:14.182Z,101227.91
2022-11-27T03:38:42.313Z,101210.91
2022-11-27T03:41:12.466Z,101213.59
2022-11-27T03:43:43.167Z,101214.41
2022-11-27T03:46:12.393Z,101217.13
2022-11-27T03:48:43.913Z,101213.41
2022-11-27T03:51:16.420Z,101210.72
2022-11-27T03:53:48.602Z,101210.50
2022-11-27T03:56:20.727Z,101222.16
2022-11-27T03:58:49.466Z,101218.59
2022-11-27T04:01:19.006Z,101210.34
2022-11-27T04:03:46.997Z,101216.56
2022-11-27T04:06:16.474Z,101215.72
2022-11-27T04:08:44.468Z,101210.34
2022-11-27T04:11:12.371Z,101214.06
2022-11-27T04:13:40.342Z,101215.91
2022-11-27T04:16:09.289Z,101219.47
2022-11-27T04:18:37.248Z,101221.50
2022-11-27T04:21:05.426Z,101208.03
2022-11-27T04:23:34.795Z,101214.41
2022-11-27T04:26:02.856Z,101210.72
2022-11-27T04:28:30.825Z,101212.59
2022-11-27T04:30:59.027Z,101219.81
2022-11-27T04:33:28.534Z,101219.81
2022-11-27T04:35:56.542Z,101219.81
2022-11-27T04:38:24.515Z,101227.91
2022-11-27T04:40:54.262Z,101230.59
2022-11-27T04:43:22.224Z,101229.75
2022-11-27T04:45:50.145Z,101231.44
2022-11-27T04:48:18.035Z,101229.75
2022-11-27T04:50:45.956Z,101231.63
2022-11-27T04:53:13.916Z,101227.06
2022-11-27T04:55:41.806Z,101225.19
2022-11-27T04:58:11.129Z,101225.19
2022-11-27T05:00:39.206Z,101226.91
2022-11-27T05:03:08.163Z,101220.47
2022-11-27T05:05:36.178Z,101220.47
2022-11-27T05:08:04.222Z,101222.34
2022-11-27T05:10:32.348Z,101224.19
2022-11-27T05:13:00.174Z,101223.16
2022-11-27T05:15:29.486Z,101224.84
2022-11-27T05:17:57.466Z,101223.16
2022-11-27T05:20:25.476Z,101213.41
2022-11-27T05:22:53.748Z,101223.16
2022-11-27T05:25:21.752Z,101224.19
2022-11-27T05:27:49.737Z,101217.97
2022-11-27T05:30:17.757Z,101211.72
2022-11-27T05:32:47.080Z,101212.75
2022-11-27T05:35:16.454Z,101208.19
2022-11-27T05:37:44.377Z,101209.03
2022-11-27T05:40:12.813Z,101213.59
2022-11-27T05:42:40.689Z,101212.75
2022-11-27T05:45:09.603Z,101218.16
2022-11-27T05:47:37.575Z,101217.13
2022-11-27T05:50:08.391Z,101220.00
2022-11-27T05:52:36.300Z,101225.41
2022-11-27T05:55:04.304Z,101226.25
2022-11-27T05:57:32.228Z,101229.97
2022-11-27T06:00:00.179Z,101233.50
2022-11-27T06:02:29.606Z,101238.06
2022-11-27T06:04:57.862Z,101233.50
2022-11-27T06:07:27.186Z,101243.25
2022-11-27T06:09:55.086Z,101244.72
2022-11-27T06:12:23.011Z,101250.13
2022-11-27T06:14:51.029Z,101245.56
2022-11-27T06:17:18.922Z,101256.16
2022-11-27T06:19:46.821Z,101255.13
2022-11-27T06:22:17.753Z,101238.97
2022-11-27T06:24:47.154Z,101248.75
2022-11-27T06:27:15.054Z,101247.03
2022-11-27T06:29:43.162Z,101247.03
2022-11-27T06:32:11.211Z,101255.13
2022-11-27T06:34:39.461Z,101256.81
2022-11-27T06:37:12.857Z,101259.53
2022-11-27T06:39:41.218Z,101259.53
2022-11-27T06:42:10.503Z,101259.53
2022-11-27T06:44:38.654Z,101266.56
2022-11-27T06:47:06.817Z,101273.84
2022-11-27T06:49:34.832Z,101268.44
2022-11-27T06:52:02.878Z,101277.34
2022-11-27T06:54:31.949Z,101270.09
2022-11-27T06:56:59.858Z,101264.72
2022-11-27T06:59:29.336Z,101265.53
2022-11-27T07:01:57.359Z,101260.16
2022-11-27T07:04:25.427Z,101267.22
2022-11-27T07:06:55.187Z,101272.63
2022-11-27T07:09:23.191Z,101268.22
2022-11-27T07:11:51.173Z,101263.50
2022-11-27T07:14:19.195Z,101256.44
2022-11-27T07:16:49.982Z,101256.25
2022-11-27T07:19:18.017Z,101261.47
2022-11-27T07:21:45.999Z,101268.72
2022-11-27T07:24:20.347Z,101256.06
2022-11-27T07:26:49.272Z,101265.81
2022-11-27T07:29:17.192Z,101258.59
2022-11-27T07:31:45.248Z,101260.44
2022-11-27T07:34:19.986Z,101254.19
2022-11-27T07:36:50.924Z,101245.28
2022-11-27T07:39:33.914Z,101256.06
2022-11-27T07:42:36.388Z,101262.28
2022-11-27T07:44:54.999Z,101254.41
2022-11-27T07:47:22.923Z,101259.81
2022-11-27T07:49:52.506Z,101260.44
2022-11-27T07:52:20.444Z,101258.59
2022-11-27T07:54:48.425Z,101262.13
2022-11-27T07:57:16.365Z,101251.34
2022-11-27T07:59:47.272Z,101254.03
2022-11-27T08:02:17.303Z,101256.72
2022-11-27T08:04:45.445Z,101246.78
2022-11-27T08:07:15.265Z,101244.06
2022-11-27T08:09:43.187Z,101253.00
2022-11-27T08:12:11.146Z,101248.63
2022-11-27T08:14:39.493Z,101244.91
2022-11-27T08:17:07.720Z,101239.50
2022-11-27T08:19:35.586Z,101241.22
2022-11-27T08:22:03.715Z,101241.22
2022-11-27T08:24:33.211Z,101241.00
2022-11-27T08:27:01.185Z,101239.78
2022-11-27T08:29:33.824Z,101240.81
2022-11-27T08:32:02.163Z,101243.53
2022-11-27T08:34:30.151Z,101242.50
2022-11-27T08:36:58.191Z,101250.56
2022-11-27T08:39:27.119Z,101241.66
2022-11-27T08:41:57.740Z,101243.53
2022-11-27T08:44:25.604Z,101240.81
2022-11-27T08:46:53.622Z,101240.81
2022-11-27T08:49:21.685Z,101237.09
2022-11-27T08:51:50.169Z,101242.50
2022-11-27T08:54:19.061Z,101243.31
2022-11-27T08:56:47.654Z,101242.50
2022-11-27T08:59:18.379Z,101243.31
2022-11-27T09:01:46.933Z,101240.81
2022-11-27T09:04:15.019Z,101238.13
2022-11-27T09:06:44.188Z,101240.00
2022-11-27T09:09:12.129Z,101236.44
2022-11-27T09:11:40.774Z,101238.31
2022-11-27T09:14:08.789Z,101240.34
2022-11-27T09:16:38.801Z,101233.13
2022-11-27T09:19:07.135Z,101223.34
2022-11-27T09:21:35.696Z,101226.88
2022-11-27T09:24:03.707Z,101224.38
2022-11-27T09:26:32.374Z,101227.91
2022-11-27T09:29:02.823Z,101227.91
2022-11-27T09:31:31.457Z,101223.34
2022-11-27T09:34:00.817Z,101219.63
2022-11-27T09:36:29.494Z,101209.84
2022-11-27T09:38:57.360Z,101210.50
2022-11-27T09:41:39.669Z,101203.47
2022-11-27T09:44:16.192Z,101203.47
2022-11-27T09:46:45.408Z,101198.25
2022-11-27T09:49:19.146Z,101200.09
2022-11-27T09:51:51.581Z,101203.81
2022-11-27T09:54:20.785Z,101198.63
2022-11-27T09:56:51.391Z,101196.75
2022-11-27T09:59:23.249Z,101191.53
2022-11-27T10:01:52.574Z,101189.72
2022-11-27T10:04:22.039Z,101187.19
2022-11-27T10:07:07.699Z,101186.34
2022-11-27T10:09:40.114Z,101176.56
2022-11-27T10:12:14.272Z,101173.06
2022-11-27T10:14:48.124Z,101174.91
2022-11-27T10:17:18.024Z,101166.84
2022-11-27T10:19:51.166Z,101169.53
2022-11-27T10:22:22.062Z,101160.59
2022-11-27T10:24:57.989Z,101159.78
2022-11-27T10:27:30.800Z,101164.31
2022-11-27T10:29:59.467Z,101158.09
2022-11-27T10:35:19.562Z,101143.59
2022-11-27T10:37:49.144Z,101145.25
2022-11-27T10:40:21.490Z,101145.25
2022-11-27T10:42:52.738Z,101143.41
2022-11-27T10:45:23.328Z,101141.53
2022-11-27T10:47:51.986Z,101147.59
2022-11-27T10:50:21.646Z,101147.78
2022-11-27T10:52:53.646Z,101148.63
2022-11-27T10:55:26.942Z,101146.75
2022-11-27T10:58:02.821Z,101146.94
2022-11-27T11:00:30.700Z,101142.56
2022-11-27T11:03:03.136Z,101142.56
2022-11-27T11:05:50.602Z,101146.31
2022-11-27T11:08:21.752Z,101144.44
2022-11-27T11:10:52.390Z,101145.25
2022-11-27T11:13:22.765Z,101139.03
2022-11-27T11:15:59.266Z,101139.88
2022-11-27T11:18:29.851Z,101139.88
2022-11-27T11:21:00.082Z,101146.94
2022-11-27T11:23:31.678Z,101132.44
2022-11-27T11:26:04.874Z,101135.13
2022-11-27T11:28:39.196Z,101134.31
2022-11-27T11:31:09.756Z,101129.53
2022-11-27T11:33:41.792Z,101133.09
2022-11-27T11:36:12.428Z,101131.22
2022-11-27T11:38:44.721Z,101126.66
2022-11-27T11:41:13.683Z,101121.28
2022-11-27T11:43:42.508Z,101116.72
2022-11-27T11:46:19.041Z,101112.16
2022-11-27T11:49:07.515Z,101114.22
2022-11-27T11:51:49.510Z,101112.34
2022-11-27T11:54:27.249Z,101115.88
2022-11-27T11:56:55.235Z,101116.72
2022-11-27T11:59:29.109Z,101104.06
2022-11-27T12:02:06.145Z,101111.16
2022-11-27T12:04:52.650Z,101114.84
2022-11-27T12:07:27.913Z,101111.31
2022-11-27T12:10:00.781Z,101109.47
2022-11-27T12:12:47.887Z,101113.00
2022-11-27T12:15:19.179Z,101113.84
2022-11-27T12:17:53.713Z,101115.50
2022-11-27T12:20:22.788Z,101113.84
2022-11-27T12:23:25.099Z,101113.84
2022-11-27T12:25:57.118Z,101108.44
2022-11-27T12:28:38.667Z,101108.63
2022-11-27T12:31:09.669Z,101117.75
2022-11-27T12:33:48.605Z,101115.22
2022-11-27T12:36:20.111Z,101111.88
2022-11-27T12:39:15.139Z,101112.91
2022-11-27T12:41:48.859Z,101105.22
2022-11-27T12:44:22.071Z,101107.91
2022-11-27T12:46:54.179Z,101105.22
2022-11-27T12:49:24.620Z,101105.41
2022-11-27T12:51:54.260Z,101112.47
2022-11-27T12:54:26.426Z,101107.47
2022-11-27T12:56:57.738Z,101112.66
2022-11-27T12:59:29.300Z,101105.59
2022-11-27T13:02:01.824Z,101105.59
2022-11-27T13:04:33.191Z,101094.00
2022-11-27T13:07:04.257Z,101103.91
2022-11-27T13:09:39.631Z,101095.81
2022-11-27T13:12:07.554Z,101093.13
2022-11-27T13:14:36.200Z,101088.78
2022-11-27T13:17:05.098Z,101088.78
2022-11-27T13:19:40.869Z,101077.34
2022-11-27T13:22:11.661Z,101088.69
2022-11-27T13:24:41.830Z,101085.75
2022-11-27T13:27:11.746Z,101083.13
2022-11-27T13:29:41.984Z,101085.75
2022-11-27T14:14:24.804Z,101077.69
2022-11-27T14:16:55.301Z,101077.94
2022-11-27T14:19:34.055Z,101075.63
2022-11-27T14:22:02.465Z,101075.63
2022-11-27T14:24:41.856Z,101071.25
2022-11-27T14:27:17.209Z,101071.81
2022-11-27T14:29:48.822Z,101068.66
2022-11-27T14:36:54.505Z,101072.06
2022-11-27T14:39:24.115Z,101069.75
2022-11-27T14:41:59.299Z,101068.25
2022-11-27T14:44:27.923Z,101067.63
2022-11-27T14:47:19.726Z,101057.88
2022-11-27T14:49:50.583Z,101065.09
2022-11-27T14:52:21.444Z,101053.50
2022-11-27T14:54:50.104Z,101064.06
2022-11-27T14:57:21.289Z,101058.34
2022-11-27T14:59:50.058Z,101054.63
2022-11-27T15:02:24.623Z,101060.00
2022-11-27T15:05:04.620Z,101056.66
2022-11-27T15:07:36.568Z,101060.56
2022-11-27T15:10:25.964Z,101058.06
2022-11-27T15:12:53.999Z,101059.91
2022-11-27T15:18:39.055Z,101053.69
2022-11-27T15:21:14.380Z,101061.09
2022-11-27T15:23:45.416Z,101059.44
2022-11-27T15:26:17.786Z,101068.34
2022-11-27T15:28:52.798Z,101064.81
2022-11-27T15:31:27.640Z,101067.50
2022-11-27T15:33:58.189Z,101067.50
2022-11-27T15:36:27.093Z,101067.50
2022-11-27T15:39:04.541Z,101063.78
2022-11-27T15:41:33.160Z,101067.50
2022-11-27T15:44:01.056Z,101066.84
2022-11-27T15:46:31.824Z,101071.22
2022-11-27T15:49:01.134Z,101070.19
2022-11-27T15:51:30.954Z,101072.88
2022-11-27T15:53:58.820Z,101070.88
2022-11-27T15:56:28.944Z,101073.56
2022-11-27T15:58:58.119Z,101071.53
2022-11-27T16:01:36.130Z,101070.31
2022-11-27T16:04:05.606Z,101061.22
2022-11-27T16:06:34.255Z,101061.03
2022-11-27T16:09:02.424Z,101062.72
2022-11-27T16:11:31.798Z,101057.50
2022-11-27T16:13:59.770Z,101057.69
2022-11-27T16:16:28.927Z,101060.38
2022-11-27T16:19:00.868Z,101052.97
2022-11-27T16:21:31.113Z,101049.09
2022-11-27T16:23:59.699Z,101061.31
2022-11-27T16:26:28.828Z,101052.22
2022-11-27T16:28:57.509Z,101055.75
2022-11-27T16:31:27.905Z,101055.56
2022-11-27T16:33:55.875Z,101051.84
2022-11-27T16:36:24.729Z,101056.88
2022-11-27T16:38:54.436Z,101057.53
2022-11-27T16:41:23.274Z,101047.78
2022-11-27T16:43:52.052Z,101056.50
2022-11-27T16:46:21.697Z,101050.09
2022-11-27T16:48:49.962Z,101047.41
2022-11-27T16:51:20.133Z,101049.72
2022-11-27T16:53:48.695Z,101046.66
2022-11-27T16:56:21.108Z,101050.84
2022-11-27T16:58:49.180Z,101046.28
2022-11-27T17:01:18.801Z,101051.66
2022-11-27T17:03:46.946Z,101050.66
2022-11-27T17:06:16.790Z,101047.97
2022-11-27T17:08:44.830Z,101044.25
2022-11-27T17:11:14.635Z,101044.09
2022-11-27T17:13:44.174Z,101047.59
2022-11-27T17:16:13.044Z,101052.63
2022-11-27T17:18:41.328Z,101047.59
2022-11-27T17:21:10.895Z,101045.91
2022-11-27T17:23:38.933Z,101033.66
2022-11-27T17:26:10.481Z,101040.91
2022-11-27T17:28:40.683Z,101044.63
2022-11-27T17:31:17.462Z,101036.56
2022-11-27T17:33:45.512Z,101033.88
2022-11-27T17:36:15.014Z,101038.22
2022-11-27T17:38:42.924Z,101032.66
2022-11-27T17:41:14.162Z,101024.75
2022-11-27T17:43:42.378Z,101028.28
2022-11-27T17:46:13.191Z,101020.03
2022-11-27T17:48:42.662Z,101029.75
2022-11-27T17:51:12.798Z,101023.56
2022-11-27T17:53:40.794Z,101026.44
2022-11-27T17:56:10.574Z,101023.56
2022-11-27T17:58:38.653Z,101021.69
2022-11-27T18:01:07.808Z,101026.06
2022-11-27T18:03:35.757Z,101024.66
2022-11-27T18:06:06.292Z,101016.84
2022-11-27T18:08:34.174Z,101017.34
2022-11-27T18:11:06.906Z,101018.34
2022-11-27T18:13:34.913Z,101011.47
2022-11-27T18:44:37.342Z,101000.25
2022-11-27T18:51:46.105Z,100997.28
2022-11-27T18:54:14.015Z,100998.97
2022-11-27T18:56:42.723Z,101001.66
2022-11-27T18:59:10.622Z,100994.59
2022-11-27T19:01:42.897Z,100995.25
2022-11-27T19:04:11.038Z,100988.22
2022-11-27T19:06:40.024Z,100996.06
2022-11-27T19:09:08.104Z,100989.88
2022-11-27T19:11:36.764Z,100992.38
2022-11-27T19:14:05.041Z,100989.47
2022-11-27T19:17:30.918Z,100987.00
2022-11-27T19:20:01.932Z,100981.78
2022-11-27T19:22:30.616Z,100985.50
2022-11-27T19:24:58.540Z,100989.88
2022-11-27T19:27:27.242Z,100987.81
2022-11-27T19:29:58.877Z,100982.44
2022-11-27T19:32:27.624Z,100991.19
2022-11-27T19:34:55.619Z,100988.47
2022-11-27T19:37:34.594Z,100989.09
2022-11-27T19:40:03.952Z,100984.59
2022-11-27T19:42:33.195Z,100980.03
2022-11-27T19:45:01.123Z,100982.72
2022-11-27T19:47:36.206Z,100978.00
2022-11-27T19:50:04.315Z,100976.13
2022-11-27T19:52:36.203Z,100973.22
2022-11-27T19:55:04.405Z,100981.13
2022-11-27T19:57:33.215Z,100973.06
2022-11-27T20:00:01.184Z,100974.91
2022-11-27T20:02:32.257Z,100975.56
2022-11-27T20:05:00.336Z,100978.28
2022-11-27T20:07:29.572Z,100975.56
2022-11-27T20:09:59.750Z,100973.50
2022-11-27T20:12:30.187Z,100976.03
2022-11-27T20:14:59.684Z,100973.13
2022-11-27T20:18:14.822Z,100973.78
2022-11-27T20:20:42.855Z,100969.06
2022-11-27T20:23:11.508Z,100961.78
2022-11-27T20:25:41.858Z,100959.59
2022-11-27T20:28:10.703Z,100959.59
2022-11-27T20:30:41.108Z,100967.44
2022-11-27T20:33:09.925Z,100969.13
2022-11-27T20:35:42.281Z,100960.03
2022-11-27T20:38:10.949Z,100963.56
2022-11-27T20:40:41.099Z,100951.75
2022-11-27T20:43:10.582Z,100960.47
2022-11-27T20:45:38.720Z,100962.16
2022-11-27T20:48:07.678Z,100967.16
2022-11-27T20:50:35.713Z,100961.78
2022-11-27T20:53:07.350Z,100960.75
2022-11-27T20:55:36.519Z,100957.03
2022-11-27T20:58:07.230Z,100962.22
2022-11-27T21:00:35.167Z,100952.31
2022-11-27T21:03:04.000Z,100948.59
2022-11-27T21:05:31.954Z,100944.06
2022-11-27T21:08:01.506Z,100941.19
2022-11-27T21:10:29.546Z,100944.50
2022-11-27T21:12:58.260Z,100939.94
2022-11-27T21:15:27.602Z,100933.53
2022-11-27T21:17:56.401Z,100937.91
2022-11-27T21:20:24.385Z,100938.53
2022-11-27T21:22:54.342Z,100942.06
2022-11-27T21:25:25.491Z,100927.59
2022-11-27T21:27:56.660Z,100930.06
2022-11-27T21:30:25.427Z,100926.38
2022-11-27T21:32:55.427Z,100931.56
2022-11-27T21:35:27.481Z,100928.69
2022-11-27T21:38:02.422Z,100928.47
2022-11-27T21:40:30.754Z,100926.44
2022-11-27T21:43:00.253Z,100922.91
2022-11-27T21:45:28.476Z,100919.00
2022-11-27T21:48:00.328Z,100924.16
2022-11-27T21:50:28.465Z,100922.34
2022-11-27T21:52:57.160Z,100925.66
2022-11-27T21:55:25.050Z,100923.59
2022-11-27T21:57:53.731Z,100915.34
2022-11-27T22:00:21.905Z,100918.88
2022-11-27T22:02:50.636Z,100917.81
2022-11-27T22:05:20.028Z,100926.13
2022-11-27T22:07:48.825Z,100919.50
2022-11-27T22:10:17.014Z,100929.47
2022-11-27T22:12:44.938Z,100922.19
2022-11-27T22:15:14.119Z,100921.16
2022-11-27T22:17:42.170Z,100920.34
2022-11-27T22:20:11.354Z,100920.16
2022-11-27T22:22:40.630Z,100914.75
2022-11-27T22:25:10.068Z,100912.91
2022-11-27T22:27:38.051Z,100917.47
2022-11-27T22:30:08.174Z,100924.50
2022-11-27T22:32:36.713Z,100922.47
2022-11-27T22:35:05.589Z,100919.75
2022-11-27T22:37:33.486Z,100917.06
2022-11-27T22:40:03.569Z,100916.22
2022-11-27T22:42:31.614Z,100911.69
2022-11-27T22:45:00.230Z,100913.34
2022-11-27T22:47:28.192Z,100913.97
2022-11-27T22:49:56.393Z,100911.28
2022-11-27T22:52:24.434Z,100914.63
2022-11-27T22:54:52.528Z,100912.94
2022-11-27T22:57:21.817Z,100921.03
2022-11-27T22:59:49.873Z,100917.31
2022-11-27T23:02:19.477Z,100913.78
2022-11-27T23:04:47.851Z,100911.06
2022-11-27T23:07:17.863Z,100908.38
2022-11-27T23:09:49.217Z,100915.63
2022-11-27T23:12:17.155Z,100918.34
2022-11-27T23:14:46.935Z,100918.34
2022-11-27T23:17:20.425Z,100911.28
2022-11-27T23:19:48.399Z,100911.28
2022-11-27T23:22:17.630Z,100909.59
2022-11-27T23:24:45.974Z,100909.59
2022-11-27T23:27:13.934Z,100907.94
2022-11-27T23:29:44.680Z,100918.72
2022-11-27T23:32:14.067Z,100915.00
2022-11-27T23:34:42.232Z,100914.16
2022-11-27T23:37:10.263Z,100911.69
2022-11-27T23:39:38.278Z,100903.38
2022-11-27T23:42:06.382Z,100906.91
2022-11-27T23:44:34.353Z,100902.56
2022-11-27T23:47:02.286Z,100896.34
2022-11-27T23:49:31.627Z,100886.38
2022-11-27T23:52:00.751Z,100892.81
2022-11-27T23:54:29.786Z,100883.69
2022-11-27T23:56:58.734Z,100886.38
2022-11-27T23:59:27.749Z,100887.22
